Time;durP1;ratioP1;P1;durP2;ratioP2;P2;SDS_P1;SDS_P2;PMS_P1;PMS_P2;Temp;Humidity;BMP_temperature;BMP_pressure;BME280_temperature;BME280_humidity;BME280_pressure;Samples;Min_cycle;Max_cycle;Signal;HPM_P1;HPM_P2
2021/01/25 00:01:54;;;;;;;3.83;2.50;;;;;;;;;;5038481;28;20478;-84
2021/01/25 00:04:20;;;;;;;4.97;3.00;;;;;;;;;;5031829;28;20923;-84
2021/01/25 00:06:46;;;;;;;4.10;2.40;;;;;;;;;;5039099;28;20434;-84
2021/01/25 00:09:12;;;;;;;3.30;1.97;;;;;;;;;;5041551;28;20407;-84
2021/01/25 00:11:38;;;;;;;2.40;2.20;;;;;;;;;;5038933;28;20523;-84
2021/01/25 00:14:04;;;;;;;2.87;2.30;;;;;;;;;;5039812;28;20928;-85
2021/01/25 00:16:30;;;;;;;4.73;2.20;;;;;;;;;;5029871;28;20964;-85
2021/01/25 00:18:56;;;;;;;3.83;2.80;;;;;;;;;;5021717;28;20411;-84
2021/01/25 00:21:22;;;;;;;3.50;3.00;;;;;;;;;;5029444;28;20455;-84
2021/01/25 00:23:48;;;;;;;4.80;2.70;;;;;;;;;;5039842;28;20416;-84
2021/01/25 00:26:14;;;;;;;5.73;3.30;;;;;;;;;;5038443;28;20491;-84
2021/01/25 00:28:40;;;;;;;3.90;2.73;;;;;;;;;;5040076;28;20413;-84
2021/01/25 00:31:06;;;;;;;3.50;2.47;;;;;;;;;;5038214;28;20473;-84
2021/01/25 00:33:32;;;;;;;4.60;3.37;;;;;;;;;;5040022;28;20744;-83
2021/01/25 00:35:59;;;;;;;4.60;2.90;;;;;;;;;;5032274;28;20434;-86
2021/01/25 00:38:25;;;;;;;6.73;2.90;;;;;;;;;;5019244;28;20911;-84
2021/01/25 00:40:51;;;;;;;4.47;3.20;;;;;;;;;;5022141;28;20512;-84
2021/01/25 00:43:17;;;;;;;5.83;3.43;;;;;;;;;;5043023;28;20422;-84
2021/01/25 00:45:43;;;;;;;9.50;3.43;;;;;;;;;;5037487;28;20425;-83
2021/01/25 00:48:09;;;;;;;8.63;3.30;;;;;;;;;;5035176;28;21039;-85
2021/01/25 00:50:35;;;;;;;4.57;2.73;;;;;;;;;;5033544;28;20462;-83
2021/01/25 00:53:01;;;;;;;4.63;2.83;;;;;;;;;;5035252;28;20406;-83
2021/01/25 00:55:27;;;;;;;4.07;2.80;;;;;;;;;;5035601;28;20426;-83
2021/01/25 00:57:53;;;;;;;3.50;2.20;;;;;;;;;;5036110;28;20417;-83
2021/01/25 01:00:20;;;;;;;6.43;2.63;;;;;;;;;;5037073;28;20425;-84
2021/01/25 01:02:46;;;;;;;3.50;2.93;;;;;;;;;;5036705;28;20441;-83
2021/01/25 01:05:12;;;;;;;6.13;3.00;;;;;;;;;;5035711;28;20471;-83
2021/01/25 01:07:39;;;;;;;5.90;3.20;;;;;;;;;;5049139;28;20488;-83
2021/01/25 01:10:06;;;;;;;7.07;3.20;;;;;;;;;;5038886;28;20474;-83
2021/01/25 01:12:32;;;;;;;6.60;2.80;;;;;;;;;;5039432;28;20574;-84
2021/01/25 01:14:58;;;;;;;4.33;3.13;;;;;;;;;;5039633;28;20432;-84
2021/01/25 01:17:24;;;;;;;3.13;2.07;;;;;;;;;;5038233;28;20479;-84
2021/01/25 01:19:50;;;;;;;5.40;2.63;;;;;;;;;;5040144;28;20407;-84
2021/01/25 01:22:16;;;;;;;3.47;2.13;;;;;;;;;;5039498;28;20429;-84
2021/01/25 01:24:42;;;;;;;4.17;2.87;;;;;;;;;;5039383;28;20398;-84
2021/01/25 01:27:08;;;;;;;2.67;2.00;;;;;;;;;;5040018;28;20893;-84
2021/01/25 01:29:34;;;;;;;3.23;2.03;;;;;;;;;;5039784;28;20421;-84
2021/01/25 01:32:00;;;;;;;6.40;3.80;;;;;;;;;;5039236;28;20837;-84
2021/01/25 01:34:26;;;;;;;5.80;2.53;;;;;;;;;;5040957;28;20402;-83
2021/01/25 01:36:52;;;;;;;5.90;2.97;;;;;;;;;;5038520;28;20458;-84
2021/01/25 01:39:18;;;;;;;5.77;2.57;;;;;;;;;;5038835;28;20427;-84
2021/01/25 01:41:44;;;;;;;4.53;3.13;;;;;;;;;;5048084;28;20547;-83
2021/01/25 01:44:10;;;;;;;4.40;2.30;;;;;;;;;;5051497;28;20490;-83
2021/01/25 01:46:38;;;;;;;3.10;2.30;;;;;;;;;;5046778;28;20571;-83
2021/01/25 01:49:04;;;;;;;3.97;2.53;;;;;;;;;;5036413;28;20430;-84
2021/01/25 01:51:30;;;;;;;4.50;2.40;;;;;;;;;;5044934;28;20546;-84
2021/01/25 01:53:57;;;;;;;3.70;2.37;;;;;;;;;;5039552;28;20422;-84
2021/01/25 01:56:23;;;;;;;6.20;3.00;;;;;;;;;;5037611;28;20449;-83
2021/01/25 01:58:49;;;;;;;3.00;2.13;;;;;;;;;;5036580;28;20428;-84
2021/01/25 02:01:15;;;;;;;3.33;2.50;;;;;;;;;;5037168;28;20429;-84
2021/01/25 02:03:41;;;;;;;5.60;2.90;;;;;;;;;;5036059;28;20966;-84
2021/01/25 02:06:07;;;;;;;2.87;2.10;;;;;;;;;;5036554;28;20485;-84
2021/01/25 02:08:36;;;;;;;3.17;2.37;;;;;;;;;;5035347;28;20780;-84
2021/01/25 02:11:02;;;;;;;2.73;2.10;;;;;;;;;;5036854;28;20508;-84
2021/01/25 02:13:29;;;;;;;3.70;2.13;;;;;;;;;;5036626;28;20461;-84
2021/01/25 02:15:55;;;;;;;3.07;2.60;;;;;;;;;;5036002;28;20938;-84
2021/01/25 02:18:21;;;;;;;5.17;2.07;;;;;;;;;;5033938;28;20484;-84
2021/01/25 02:20:47;;;;;;;3.47;2.10;;;;;;;;;;5036749;28;20817;-84
2021/01/25 02:23:16;;;;;;;4.30;2.60;;;;;;;;;;5024417;28;20438;-84
2021/01/25 02:25:56;;;;;;;3.63;2.50;;;;;;;;;;5016674;28;20425;-84
2021/01/25 02:28:22;;;;;;;6.70;3.10;;;;;;;;;;5031188;28;20447;-83
2021/01/25 02:30:48;;;;;;;3.40;2.33;;;;;;;;;;5045049;28;20545;-83
2021/01/25 02:33:16;;;;;;;4.50;2.40;;;;;;;;;;5035949;28;20568;-84
2021/01/25 02:35:43;;;;;;;4.60;2.20;;;;;;;;;;5036375;28;20886;-84
2021/01/25 02:38:10;;;;;;;3.80;2.30;;;;;;;;;;5034922;28;20788;-84
2021/01/25 02:40:37;;;;;;;3.37;2.00;;;;;;;;;;5036359;28;20428;-84
2021/01/25 02:43:03;;;;;;;5.40;2.47;;;;;;;;;;5037940;28;20509;-83
2021/01/25 02:45:29;;;;;;;3.10;2.23;;;;;;;;;;5038267;28;20424;-84
2021/01/25 02:47:56;;;;;;;5.57;2.77;;;;;;;;;;5038267;28;20441;-84
2021/01/25 02:50:22;;;;;;;9.93;2.13;;;;;;;;;;5039409;28;20482;-84
2021/01/25 02:52:48;;;;;;;2.93;1.90;;;;;;;;;;5036900;28;20430;-84
2021/01/25 02:55:14;;;;;;;2.47;2.20;;;;;;;;;;5039199;28;20943;-84
2021/01/25 02:57:40;;;;;;;3.90;1.67;;;;;;;;;;5036242;28;20493;-84
2021/01/25 03:00:07;;;;;;;2.97;2.00;;;;;;;;;;5039863;28;20460;-84
2021/01/25 03:02:33;;;;;;;2.87;1.83;;;;;;;;;;5035353;28;20435;-84
2021/01/25 03:05:04;;;;;;;2.87;1.90;;;;;;;;;;5040726;28;20401;-84
2021/01/25 03:07:30;;;;;;;2.07;1.80;;;;;;;;;;5038568;28;20786;-84
2021/01/25 03:10:00;;;;;;;2.77;2.17;;;;;;;;;;5039539;28;20414;-84
2021/01/25 03:12:26;;;;;;;2.90;2.13;;;;;;;;;;5038919;28;20521;-84
2021/01/25 03:14:52;;;;;;;3.00;2.07;;;;;;;;;;5039886;28;20436;-84
2021/01/25 03:17:18;;;;;;;4.10;1.97;;;;;;;;;;5038933;28;20446;-83
2021/01/25 03:19:44;;;;;;;6.03;2.27;;;;;;;;;;5038147;28;20427;-84
2021/01/25 03:22:10;;;;;;;5.53;2.33;;;;;;;;;;5038854;28;20456;-84
2021/01/25 03:24:36;;;;;;;2.63;2.00;;;;;;;;;;5036867;28;20851;-84
2021/01/25 03:27:02;;;;;;;1.93;1.53;;;;;;;;;;5039577;28;20442;-84
2021/01/25 03:29:28;;;;;;;2.50;1.73;;;;;;;;;;5037201;28;20523;-84
2021/01/25 03:31:54;;;;;;;2.67;2.20;;;;;;;;;;5036513;28;20866;-84
2021/01/25 03:34:20;;;;;;;2.40;1.80;;;;;;;;;;5036520;28;20456;-84
2021/01/25 03:36:46;;;;;;;3.10;1.73;;;;;;;;;;5038349;28;20422;-84
2021/01/25 03:39:13;;;;;;;2.60;2.07;;;;;;;;;;5037809;28;20452;-84
2021/01/25 03:41:39;;;;;;;3.40;2.33;;;;;;;;;;5037992;28;20451;-84
2021/01/25 03:44:05;;;;;;;3.57;2.10;;;;;;;;;;5036385;28;20465;-84
2021/01/25 03:46:31;;;;;;;2.47;1.83;;;;;;;;;;5038346;28;20422;-84
2021/01/25 03:48:57;;;;;;;4.33;2.10;;;;;;;;;;5038499;28;20989;-84
2021/01/25 03:51:23;;;;;;;2.67;1.90;;;;;;;;;;5039702;28;20867;-84
2021/01/25 03:53:49;;;;;;;3.50;2.00;;;;;;;;;;5038079;28;20424;-84
2021/01/25 03:56:15;;;;;;;2.33;2.00;;;;;;;;;;5056650;28;20435;-84
2021/01/25 03:58:42;;;;;;;3.93;1.90;;;;;;;;;;5055968;28;20437;-84
2021/01/25 04:01:08;;;;;;;3.00;1.80;;;;;;;;;;5050082;28;20481;-83
2021/01/25 04:03:34;;;;;;;2.23;1.63;;;;;;;;;;5036526;28;20459;-83
2021/01/25 04:06:00;;;;;;;4.00;2.20;;;;;;;;;;5034883;28;20441;-84
2021/01/25 04:08:26;;;;;;;3.30;2.53;;;;;;;;;;5035525;28;20440;-84
2021/01/25 04:10:52;;;;;;;4.90;2.13;;;;;;;;;;5037955;28;20477;-84
2021/01/25 04:13:18;;;;;;;2.33;1.90;;;;;;;;;;5037442;28;20498;-84
2021/01/25 04:15:44;;;;;;;11.47;3.33;;;;;;;;;;5037590;28;20477;-84
2021/01/25 04:18:10;;;;;;;4.43;2.40;;;;;;;;;;5038371;28;20430;-84
2021/01/25 04:20:36;;;;;;;2.47;2.00;;;;;;;;;;5034496;28;20437;-83
2021/01/25 04:23:02;;;;;;;2.80;2.10;;;;;;;;;;5033402;28;20441;-84
2021/01/25 04:25:28;;;;;;;2.40;2.20;;;;;;;;;;5034716;28;20897;-83
2021/01/25 04:27:54;;;;;;;3.50;1.80;;;;;;;;;;5032152;28;20422;-83
2021/01/25 04:30:20;;;;;;;2.57;2.17;;;;;;;;;;5033014;28;20464;-83
2021/01/25 04:32:46;;;;;;;3.50;2.17;;;;;;;;;;5032981;28;20799;-83
2021/01/25 04:35:13;;;;;;;3.63;2.47;;;;;;;;;;5027277;28;20430;-83
2021/01/25 04:37:40;;;;;;;7.50;2.40;;;;;;;;;;5024319;28;20426;-82
2021/01/25 04:40:06;;;;;;;3.33;2.03;;;;;;;;;;5033394;28;20800;-83
2021/01/25 04:42:33;;;;;;;2.37;2.00;;;;;;;;;;5033948;28;21000;-83
2021/01/25 04:44:59;;;;;;;2.47;1.57;;;;;;;;;;5033187;28;20783;-83
2021/01/25 04:47:26;;;;;;;2.13;1.90;;;;;;;;;;5036396;28;20479;-82
2021/01/25 04:49:53;;;;;;;2.43;1.67;;;;;;;;;;5039632;28;20426;-83
2021/01/25 04:52:19;;;;;;;4.17;2.50;;;;;;;;;;5034117;28;20437;-83
2021/01/25 04:54:46;;;;;;;3.73;1.90;;;;;;;;;;5034210;28;20440;-83
2021/01/25 04:57:14;;;;;;;3.13;1.80;;;;;;;;;;5035212;28;20452;-83
2021/01/25 04:59:41;;;;;;;3.80;2.03;;;;;;;;;;5033227;28;20922;-83
2021/01/25 05:02:07;;;;;;;3.20;1.93;;;;;;;;;;5050208;22;20542;-72
2021/01/25 05:04:33;;;;;;;2.80;1.90;;;;;;;;;;5038183;28;20434;-71
2021/01/25 05:06:59;;;;;;;3.43;1.97;;;;;;;;;;5032811;28;20430;-71
2021/01/25 05:09:25;;;;;;;2.13;1.60;;;;;;;;;;5044681;28;20432;-71
2021/01/25 05:11:58;;;;;;;3.47;2.50;;;;;;;;;;5051704;28;20524;-71
2021/01/25 05:14:24;;;;;;;3.20;2.10;;;;;;;;;;5050865;28;20424;-70
2021/01/25 05:16:50;;;;;;;4.00;1.90;;;;;;;;;;5052955;28;20418;-70
2021/01/25 05:19:16;;;;;;;3.10;1.90;;;;;;;;;;5050113;28;20512;-72
2021/01/25 05:21:43;;;;;;;2.13;1.83;;;;;;;;;;5052845;28;20906;-72
2021/01/25 05:24:11;;;;;;;2.37;1.50;;;;;;;;;;5051563;28;20557;-72
2021/01/25 05:26:40;;;;;;;2.20;1.63;;;;;;;;;;5052774;28;20453;-72
2021/01/25 05:29:06;;;;;;;4.97;2.10;;;;;;;;;;5037378;28;20424;-72
2021/01/25 05:31:32;;;;;;;3.30;1.83;;;;;;;;;;5032741;28;20455;-70
2021/01/25 05:33:58;;;;;;;5.33;2.10;;;;;;;;;;5039335;28;20431;-71
2021/01/25 05:36:26;;;;;;;3.10;2.47;;;;;;;;;;5046694;28;20518;-71
2021/01/25 05:38:52;;;;;;;8.17;2.20;;;;;;;;;;5038453;28;20426;-71
2021/01/25 05:41:19;;;;;;;3.83;1.83;;;;;;;;;;5052966;28;20746;-72
2021/01/25 05:43:45;;;;;;;3.23;2.00;;;;;;;;;;5051622;28;20448;-72
2021/01/25 05:46:12;;;;;;;4.47;1.83;;;;;;;;;;5047338;28;20774;-72
2021/01/25 05:48:39;;;;;;;9.80;2.73;;;;;;;;;;5036512;28;20460;-72
2021/01/25 05:51:19;;;;;;;2.63;1.73;;;;;;;;;;5051341;28;20464;-72
2021/01/25 05:53:46;;;;;;;7.70;2.17;;;;;;;;;;5049903;28;20498;-72
2021/01/25 05:56:14;;;;;;;5.50;2.47;;;;;;;;;;5052377;28;20426;-72
2021/01/25 05:58:40;;;;;;;2.73;1.77;;;;;;;;;;5036831;28;20429;-72
2021/01/25 06:01:06;;;;;;;8.97;2.67;;;;;;;;;;5052366;28;20409;-73
2021/01/25 06:03:39;;;;;;;4.73;2.00;;;;;;;;;;5051584;28;20635;-72
2021/01/25 06:06:09;;;;;;;4.70;1.97;;;;;;;;;;5052698;28;20556;-70
2021/01/25 06:08:53;;;;;;;5.27;2.10;;;;;;;;;;5039169;28;20791;-69
2021/01/25 06:11:21;;;;;;;3.00;1.87;;;;;;;;;;5052527;28;20483;-70
2021/01/25 06:14:05;;;;;;;3.30;2.10;;;;;;;;;;5050901;28;20486;-72
2021/01/25 06:16:33;;;;;;;3.13;1.83;;;;;;;;;;5055041;28;20439;-73
2021/01/25 06:19:00;;;;;;;2.97;1.87;;;;;;;;;;5043607;28;20417;-71
2021/01/25 06:21:28;;;;;;;4.80;1.77;;;;;;;;;;5056326;28;20504;-73
2021/01/25 06:23:54;;;;;;;3.17;2.10;;;;;;;;;;5055314;28;20460;-72
2021/01/25 06:26:23;;;;;;;2.53;1.80;;;;;;;;;;5056545;28;20946;-70
2021/01/25 06:28:50;;;;;;;4.60;2.33;;;;;;;;;;5048293;28;20565;-70
2021/01/25 06:31:23;;;;;;;2.97;2.03;;;;;;;;;;5056119;28;20565;-71
2021/01/25 06:33:49;;;;;;;3.40;1.83;;;;;;;;;;5054974;28;20803;-70
2021/01/25 06:36:19;;;;;;;4.90;2.40;;;;;;;;;;5054669;28;20426;-71
2021/01/25 06:38:48;;;;;;;3.57;1.60;;;;;;;;;;5051026;28;20425;-72
2021/01/25 06:41:14;;;;;;;13.70;2.13;;;;;;;;;;5056704;28;20538;-72
2021/01/25 06:43:41;;;;;;;10.90;2.20;;;;;;;;;;5046852;28;20438;-72
2021/01/25 06:46:08;;;;;;;3.20;1.60;;;;;;;;;;5056164;28;20464;-72
2021/01/25 06:48:34;;;;;;;5.60;2.20;;;;;;;;;;5053347;28;20428;-71
2021/01/25 06:51:01;;;;;;;5.30;1.83;;;;;;;;;;5056533;28;20456;-72
2021/01/25 06:53:28;;;;;;;3.67;1.90;;;;;;;;;;5054038;28;20443;-71
2021/01/25 06:55:58;;;;;;;3.30;2.13;;;;;;;;;;5055515;28;20437;-72
2021/01/25 06:58:29;;;;;;;2.40;1.87;;;;;;;;;;5049747;28;20850;-71
2021/01/25 07:00:55;;;;;;;7.23;1.50;;;;;;;;;;5055172;28;20437;-72
2021/01/25 07:03:21;;;;;;;4.90;2.27;;;;;;;;;;5055425;28;20896;-71
2021/01/25 07:05:49;;;;;;;7.00;2.03;;;;;;;;;;5053651;28;20452;-71
2021/01/25 07:08:23;;;;;;;5.87;1.87;;;;;;;;;;5053136;28;20807;-71
2021/01/25 07:11:02;;;;;;;10.93;2.50;;;;;;;;;;5053245;28;20514;-71
2021/01/25 07:13:29;;;;;;;4.80;2.10;;;;;;;;;;5055343;28;20416;-71
2021/01/25 07:15:56;;;;;;;9.77;2.57;;;;;;;;;;5054307;28;20443;-71
2021/01/25 07:18:26;;;;;;;6.57;2.40;;;;;;;;;;5053655;28;20425;-72
2021/01/25 07:20:53;;;;;;;6.80;1.80;;;;;;;;;;5053041;28;20429;-70
2021/01/25 07:23:21;;;;;;;4.57;2.03;;;;;;;;;;5055179;28;20906;-70
2021/01/25 07:25:57;;;;;;;3.90;2.10;;;;;;;;;;5052747;28;20457;-70
2021/01/25 07:28:24;;;;;;;11.23;2.37;;;;;;;;;;5054204;28;20521;-70
2021/01/25 07:30:50;;;;;;;3.57;2.07;;;;;;;;;;5036616;28;20962;-71
2021/01/25 07:33:17;;;;;;;3.33;1.63;;;;;;;;;;5035674;28;20402;-73
2021/01/25 07:35:43;;;;;;;5.23;1.60;;;;;;;;;;5051106;28;20429;-71
2021/01/25 07:38:09;;;;;;;5.83;2.07;;;;;;;;;;5054738;28;20405;-71
2021/01/25 07:40:35;;;;;;;3.80;2.27;;;;;;;;;;5041353;28;20777;-70
2021/01/25 07:43:01;;;;;;;3.10;2.07;;;;;;;;;;5053447;28;20432;-70
2021/01/25 07:45:28;;;;;;;2.70;2.00;;;;;;;;;;5052074;28;20415;-70
2021/01/25 07:47:54;;;;;;;2.30;1.83;;;;;;;;;;5055014;28;20402;-72
2021/01/25 07:50:20;;;;;;;5.27;2.37;;;;;;;;;;5044576;28;20499;-70
2021/01/25 07:52:56;;;;;;;16.73;2.40;;;;;;;;;;5040888;28;20488;-71
2021/01/25 07:55:22;;;;;;;4.40;2.83;;;;;;;;;;5048114;28;20440;-72
2021/01/25 07:57:48;;;;;;;3.33;2.70;;;;;;;;;;5054354;28;20433;-72
2021/01/25 08:00:22;;;;;;;11.23;2.40;;;;;;;;;;5042742;28;20927;-72
2021/01/25 08:02:52;;;;;;;6.90;2.97;;;;;;;;;;5048163;28;20442;-71
2021/01/25 08:05:18;;;;;;;11.20;4.40;;;;;;;;;;5045257;28;20502;-71
2021/01/25 08:07:46;;;;;;;7.53;3.13;;;;;;;;;;5047324;28;20437;-71
2021/01/25 08:10:13;;;;;;;6.37;2.77;;;;;;;;;;5044431;28;20760;-71
2021/01/25 08:12:39;;;;;;;6.40;2.13;;;;;;;;;;5039036;28;20429;-68
2021/01/25 08:15:10;;;;;;;4.77;2.20;;;;;;;;;;5036575;28;20985;-69
2021/01/25 08:17:46;;;;;;;8.07;2.20;;;;;;;;;;5040327;28;20462;-71
2021/01/25 08:20:23;;;;;;;6.13;2.03;;;;;;;;;;5048397;28;20793;-72
2021/01/25 08:22:52;;;;;;;3.27;2.53;;;;;;;;;;5042725;28;20430;-72
2021/01/25 08:25:19;;;;;;;4.23;2.50;;;;;;;;;;5045698;28;20437;-70
2021/01/25 08:27:55;;;;;;;3.07;2.17;;;;;;;;;;5045277;28;20460;-70
2021/01/25 08:30:22;;;;;;;4.47;2.07;;;;;;;;;;5044664;28;20465;-71
2021/01/25 08:32:51;;;;;;;2.20;1.60;;;;;;;;;;5040461;28;20419;-69
2021/01/25 08:35:31;;;;;;;5.40;2.40;;;;;;;;;;5047763;28;20471;-73
2021/01/25 08:38:15;;;;;;;3.50;2.20;;;;;;;;;;5047981;28;20487;-72
2021/01/25 08:40:41;;;;;;;6.05;2.08;;;;;;;;;;5048369;28;20772;-73
2021/01/25 08:43:18;;;;;;;2.40;1.40;;;;;;;;;;5042860;28;20233;-71
2021/01/25 08:45:44;;;;;;;2.90;1.93;;;;;;;;;;5054941;28;20485;-70
2021/01/25 08:48:10;;;;;;;3.40;1.55;;;;;;;;;;5044215;28;20904;-70
2021/01/25 08:50:37;;;;;;;4.67;1.87;;;;;;;;;;5048232;28;20815;-71
2021/01/25 08:53:09;;;;;;;2.73;1.80;;;;;;;;;;5041031;28;20429;-72
2021/01/25 08:55:35;;;;;;;1.60;1.30;;;;;;;;;;5042502;28;20422;-71
2021/01/25 08:58:02;;;;;;;2.70;1.70;;;;;;;;;;5045411;28;20406;-72
2021/01/25 09:00:28;;;;;;;4.63;1.53;;;;;;;;;;5040350;28;20431;-72
2021/01/25 09:03:04;;;;;;;3.28;2.13;;;;;;;;;;5036996;28;20461;-70
2021/01/25 09:05:30;;;;;;;4.07;2.13;;;;;;;;;;5035050;28;20657;-69
2021/01/25 09:07:56;;;;;;;3.20;2.03;;;;;;;;;;5036427;28;20433;-68
2021/01/25 09:10:22;;;;;;;5.00;2.83;;;;;;;;;;5051580;28;20568;-69
2021/01/25 09:12:48;;;;;;;13.63;2.90;;;;;;;;;;5047888;28;20420;-68
2021/01/25 09:15:15;;;;;;;8.60;2.20;;;;;;;;;;5043355;28;20453;-70
2021/01/25 09:17:41;;;;;;;3.80;2.37;;;;;;;;;;5044047;28;20445;-70
2021/01/25 09:20:08;;;;;;;3.17;1.70;;;;;;;;;;5042351;28;20434;-69
2021/01/25 09:22:35;;;;;;;3.10;1.97;;;;;;;;;;5050826;28;20553;-71
2021/01/25 09:25:01;;;;;;;4.07;2.50;;;;;;;;;;5069109;28;20402;-70
2021/01/25 09:27:27;;;;;;;3.50;1.90;;;;;;;;;;5040205;28;20445;-70
2021/01/25 09:29:53;;;;;;;5.30;2.10;;;;;;;;;;5035899;28;20493;-70
2021/01/25 09:32:19;;;;;;;4.53;2.63;;;;;;;;;;5036123;28;21151;-69
2021/01/25 09:34:46;;;;;;;4.57;2.60;;;;;;;;;;5045654;28;20962;-69
2021/01/25 09:37:12;;;;;;;3.57;2.43;;;;;;;;;;5061803;28;20811;-67
2021/01/25 09:39:39;;;;;;;5.33;2.23;;;;;;;;;;5037477;28;20428;-68
2021/01/25 09:42:06;;;;;;;6.60;2.60;;;;;;;;;;5036514;28;20606;-69
2021/01/25 09:44:33;;;;;;;6.17;2.27;;;;;;;;;;5041379;28;20765;-69
2021/01/25 09:46:59;;;;;;;6.73;2.77;;;;;;;;;;5036907;28;20442;-69
2021/01/25 09:49:25;;;;;;;2.70;2.10;;;;;;;;;;5049017;28;20789;-69
2021/01/25 09:51:51;;;;;;;2.80;2.40;;;;;;;;;;5048069;28;20865;-70
2021/01/25 09:54:17;;;;;;;6.70;2.30;;;;;;;;;;5037587;28;20914;-72
2021/01/25 09:56:44;;;;;;;7.03;3.00;;;;;;;;;;5049115;28;20729;-72
2021/01/25 09:59:10;;;;;;;3.10;1.83;;;;;;;;;;5062655;28;20424;-71
2021/01/25 10:01:36;;;;;;;7.03;2.10;;;;;;;;;;5031434;28;20832;-72
2021/01/25 10:04:02;;;;;;;4.23;2.30;;;;;;;;;;5042456;28;20426;-71
2021/01/25 10:06:29;;;;;;;4.23;2.33;;;;;;;;;;5053470;28;21022;-72
2021/01/25 10:08:58;;;;;;;3.30;1.88;;;;;;;;;;5045456;28;20473;-71
2021/01/25 10:11:25;;;;;;;2.40;1.90;;;;;;;;;;5032262;28;20202;-70
2021/01/25 10:13:51;;;;;;;3.77;1.80;;;;;;;;;;5039657;28;20907;-71
2021/01/25 10:16:17;;;;;;;5.10;3.00;;;;;;;;;;5035391;28;20536;-71
2021/01/25 10:18:43;;;;;;;2.40;1.97;;;;;;;;;;5041708;28;20459;-71
2021/01/25 10:21:09;;;;;;;3.57;2.20;;;;;;;;;;5049709;28;20427;-71
2021/01/25 10:23:35;;;;;;;2.30;1.60;;;;;;;;;;5036437;28;20478;-73
2021/01/25 10:26:02;;;;;;;3.00;2.20;;;;;;;;;;5036310;28;20461;-71
2021/01/25 10:28:28;;;;;;;3.07;2.30;;;;;;;;;;5039129;28;20441;-73
2021/01/25 10:30:54;;;;;;;3.03;2.00;;;;;;;;;;5034922;28;20579;-71
2021/01/25 10:33:20;;;;;;;3.13;1.80;;;;;;;;;;5036146;28;20515;-70
2021/01/25 10:35:46;;;;;;;2.60;1.80;;;;;;;;;;5041230;28;20799;-69
2021/01/25 10:38:12;;;;;;;3.03;2.13;;;;;;;;;;5030681;28;20439;-68
2021/01/25 10:40:38;;;;;;;5.63;2.30;;;;;;;;;;5035885;28;20505;-69
2021/01/25 10:43:04;;;;;;;3.80;2.47;;;;;;;;;;5035893;28;20433;-71
2021/01/25 10:45:31;;;;;;;2.83;1.97;;;;;;;;;;5037241;28;20809;-70
2021/01/25 10:47:57;;;;;;;10.03;1.83;;;;;;;;;;5036641;28;20510;-69
2021/01/25 10:50:23;;;;;;;3.40;1.90;;;;;;;;;;5030193;28;20327;-70
2021/01/25 10:52:49;;;;;;;5.60;2.13;;;;;;;;;;5035089;28;20178;-69
2021/01/25 10:55:15;;;;;;;3.50;2.23;;;;;;;;;;5038896;28;20425;-68
2021/01/25 10:57:41;;;;;;;3.80;2.80;;;;;;;;;;5041619;28;21026;-71
2021/01/25 11:00:18;;;;;;;3.45;2.60;;;;;;;;;;5046499;28;20919;-70
2021/01/25 11:02:45;;;;;;;4.30;3.10;;;;;;;;;;5040867;28;20194;-70
2021/01/25 11:05:12;;;;;;;2.80;2.03;;;;;;;;;;5044002;28;20419;-69
2021/01/25 11:07:38;;;;;;;6.27;2.33;;;;;;;;;;5039868;28;21172;-68
2021/01/25 11:10:06;;;;;;;5.33;3.60;;;;;;;;;;5042598;28;20505;-68
2021/01/25 11:12:32;;;;;;;3.40;2.10;;;;;;;;;;5044420;28;20430;-68
2021/01/25 11:14:58;;;;;;;3.50;1.90;;;;;;;;;;5034804;28;20509;-68
2021/01/25 11:17:24;;;;;;;3.87;2.40;;;;;;;;;;5045855;28;20480;-68
2021/01/25 11:19:50;;;;;;;4.17;2.10;;;;;;;;;;5040294;28;20422;-67
2021/01/25 11:22:16;;;;;;;4.60;2.30;;;;;;;;;;5040396;28;20993;-68
2021/01/25 11:24:42;;;;;;;2.20;2.00;;;;;;;;;;5042850;28;20421;-68
2021/01/25 11:27:08;;;;;;;4.38;2.20;;;;;;;;;;5040979;28;20465;-69
2021/01/25 11:29:35;;;;;;;4.03;2.08;;;;;;;;;;5042495;28;20759;-71
2021/01/25 11:32:02;;;;;;;3.40;2.23;;;;;;;;;;5049471;28;20210;-74
2021/01/25 11:34:29;;;;;;;6.43;2.93;;;;;;;;;;5046698;28;20505;-75
2021/01/25 11:36:55;;;;;;;10.10;2.20;;;;;;;;;;5027956;28;20545;-75
2021/01/25 11:39:22;;;;;;;2.50;1.80;;;;;;;;;;5048035;28;20743;-74
2021/01/25 11:41:48;;;;;;;3.60;2.40;;;;;;;;;;5052525;28;20507;-73
2021/01/25 11:44:14;;;;;;;2.97;2.10;;;;;;;;;;5040105;28;20414;-74
2021/01/25 11:46:40;;;;;;;7.73;2.37;;;;;;;;;;5043912;28;20452;-74
2021/01/25 11:49:06;;;;;;;3.17;2.20;;;;;;;;;;5048523;28;20460;-74
2021/01/25 11:51:32;;;;;;;3.40;2.97;;;;;;;;;;5049687;28;20456;-74
2021/01/25 11:53:58;;;;;;;4.80;2.90;;;;;;;;;;5050656;28;20489;-74
2021/01/25 11:56:24;;;;;;;4.57;3.07;;;;;;;;;;5052506;28;20794;-75
2021/01/25 11:58:51;;;;;;;2.97;2.50;;;;;;;;;;5053141;28;20429;-73
2021/01/25 12:01:17;;;;;;;5.53;2.97;;;;;;;;;;5040338;28;20436;-74
2021/01/25 12:03:43;;;;;;;3.87;2.90;;;;;;;;;;5039003;28;20412;-73
2021/01/25 12:06:09;;;;;;;3.30;2.77;;;;;;;;;;5044176;28;20434;-72
2021/01/25 12:08:36;;;;;;;3.90;2.40;;;;;;;;;;5044720;28;20481;-73
2021/01/25 12:11:03;;;;;;;3.50;2.93;;;;;;;;;;5047897;28;20462;-73
2021/01/25 12:13:29;;;;;;;4.60;2.93;;;;;;;;;;5051334;28;20428;-73
2021/01/25 12:15:55;;;;;;;3.50;2.70;;;;;;;;;;5050230;28;20439;-73
2021/01/25 12:18:21;;;;;;;5.70;3.47;;;;;;;;;;5045189;28;20425;-73
2021/01/25 12:20:47;;;;;;;4.63;3.33;;;;;;;;;;5040333;28;20476;-73
2021/01/25 12:23:13;;;;;;;3.33;2.60;;;;;;;;;;5046641;28;20448;-73
2021/01/25 12:25:40;;;;;;;4.90;3.60;;;;;;;;;;5035323;28;20437;-74
2021/01/25 12:28:07;;;;;;;5.27;3.40;;;;;;;;;;5047934;28;21017;-73
2021/01/25 12:30:33;;;;;;;4.87;3.13;;;;;;;;;;5046619;28;20474;-73
2021/01/25 12:32:59;;;;;;;3.63;2.93;;;;;;;;;;5050658;28;20428;-73
2021/01/25 12:35:25;;;;;;;3.73;3.13;;;;;;;;;;5039194;28;20426;-73
2021/01/25 12:37:53;;;;;;;3.83;2.93;;;;;;;;;;5032536;28;20817;-74
2021/01/25 12:40:20;;;;;;;4.03;2.77;;;;;;;;;;5066254;28;20865;-73
2021/01/25 12:42:46;;;;;;;5.30;3.20;;;;;;;;;;5043438;28;20439;-73
2021/01/25 12:45:12;;;;;;;3.77;2.73;;;;;;;;;;5032870;28;20414;-72
2021/01/25 12:47:38;;;;;;;4.30;2.90;;;;;;;;;;5043064;28;20926;-72
2021/01/25 12:50:05;;;;;;;3.00;2.50;;;;;;;;;;5044687;28;20464;-73
2021/01/25 12:52:33;;;;;;;3.00;2.70;;;;;;;;;;5051388;28;20432;-73
2021/01/25 12:55:00;;;;;;;6.00;3.17;;;;;;;;;;5042832;28;20409;-72
2021/01/25 12:57:26;;;;;;;4.37;3.37;;;;;;;;;;5045048;28;20199;-71
2021/01/25 12:59:52;;;;;;;7.13;2.93;;;;;;;;;;5038659;28;20413;-72
2021/01/25 13:02:18;;;;;;;3.93;2.87;;;;;;;;;;5046038;28;20448;-72
2021/01/25 13:04:44;;;;;;;5.90;2.87;;;;;;;;;;5051744;28;20419;-72
2021/01/25 13:07:10;;;;;;;4.53;2.73;;;;;;;;;;5048349;28;20524;-72
2021/01/25 13:09:36;;;;;;;3.30;3.00;;;;;;;;;;5044340;28;20437;-72
2021/01/25 13:12:03;;;;;;;5.30;3.37;;;;;;;;;;5043961;28;20475;-71
2021/01/25 13:14:29;;;;;;;9.20;3.10;;;;;;;;;;5034147;28;20416;-72
2021/01/25 13:16:55;;;;;;;4.40;3.27;;;;;;;;;;5038294;28;20449;-72
2021/01/25 13:19:21;;;;;;;4.87;3.50;;;;;;;;;;5040672;28;20492;-73
2021/01/25 13:21:47;;;;;;;10.40;3.20;;;;;;;;;;5037781;28;20950;-72
2021/01/25 13:24:13;;;;;;;7.03;3.80;;;;;;;;;;5050847;28;20407;-73
2021/01/25 13:26:40;;;;;;;5.10;3.40;;;;;;;;;;5048094;28;20983;-72
2021/01/25 13:29:06;;;;;;;4.53;3.63;;;;;;;;;;5034660;28;20482;-73
2021/01/25 13:31:32;;;;;;;3.40;2.80;;;;;;;;;;5037131;28;20464;-72
2021/01/25 13:33:58;;;;;;;4.77;4.10;;;;;;;;;;5045646;28;20923;-73
2021/01/25 13:36:24;;;;;;;8.70;4.07;;;;;;;;;;5049242;28;20424;-73
2021/01/25 13:38:50;;;;;;;5.17;3.50;;;;;;;;;;5041197;28;20416;-73
2021/01/25 13:41:16;;;;;;;5.53;4.00;;;;;;;;;;5038057;28;20503;-72
2021/01/25 13:43:42;;;;;;;5.47;4.30;;;;;;;;;;5042183;28;20426;-70
2021/01/25 13:46:08;;;;;;;7.20;4.30;;;;;;;;;;5036189;28;20442;-71
2021/01/25 13:48:34;;;;;;;6.33;4.27;;;;;;;;;;5034606;28;20427;-71
2021/01/25 13:51:00;;;;;;;5.50;4.37;;;;;;;;;;5040168;28;20467;-71
2021/01/25 13:53:26;;;;;;;9.53;5.20;;;;;;;;;;5038719;28;20517;-71
2021/01/25 13:55:53;;;;;;;6.40;4.80;;;;;;;;;;5039928;28;20862;-69
2021/01/25 13:58:19;;;;;;;5.37;4.87;;;;;;;;;;5037886;28;20921;-66
2021/01/25 14:00:45;;;;;;;6.00;4.60;;;;;;;;;;5039240;28;20823;-69
2021/01/25 14:03:11;;;;;;;6.23;5.47;;;;;;;;;;5038280;28;20440;-66
2021/01/25 14:05:37;;;;;;;8.80;5.27;;;;;;;;;;5040490;28;20787;-70
2021/01/25 14:08:04;;;;;;;12.47;7.60;;;;;;;;;;5035221;28;20438;-71
2021/01/25 14:10:30;;;;;;;6.80;5.33;;;;;;;;;;5041849;28;20528;-71
2021/01/25 14:12:56;;;;;;;5.67;4.50;;;;;;;;;;5037821;28;20420;-71
2021/01/25 14:15:23;;;;;;;9.27;5.80;;;;;;;;;;5040740;28;21578;-71
2021/01/25 14:17:49;;;;;;;8.27;6.07;;;;;;;;;;5043405;28;20456;-71
2021/01/25 14:20:17;;;;;;;9.10;6.47;;;;;;;;;;5033147;28;20417;-71
2021/01/25 14:22:44;;;;;;;7.90;5.00;;;;;;;;;;5037720;28;20456;-71
2021/01/25 14:25:10;;;;;;;10.70;5.93;;;;;;;;;;5048952;28;20462;-71
2021/01/25 14:27:37;;;;;;;7.77;5.77;;;;;;;;;;5032360;28;20522;-71
2021/01/25 14:30:07;;;;;;;8.03;6.10;;;;;;;;;;5043023;28;20420;-71
2021/01/25 14:32:33;;;;;;;8.27;6.00;;;;;;;;;;5047255;28;20460;-70
2021/01/25 14:34:59;;;;;;;8.30;6.07;;;;;;;;;;5048537;28;20903;-70
2021/01/25 14:37:25;;;;;;;17.10;5.47;;;;;;;;;;5036644;28;20450;-70
2021/01/25 14:39:51;;;;;;;10.00;5.80;;;;;;;;;;5037145;28;20819;-70
2021/01/25 14:42:17;;;;;;;8.03;5.97;;;;;;;;;;5042840;28;20477;-70